createdAt,value
2023-01-27T00:01:40.409Z,99992.13
2023-01-27T00:07:03.243Z,100000.25
2023-01-27T00:12:45.940Z,100002.63
2023-01-27T00:18:08.212Z,100003.00
2023-01-27T00:23:49.178Z,99998.53
2023-01-27T00:29:11.604Z,100005.22
2023-01-27T00:34:33.769Z,99992.47
2023-01-27T00:39:55.972Z,99981.94
2023-01-27T00:45:36.944Z,99980.50
2023-01-27T00:51:00.941Z,99976.44
2023-01-27T00:56:22.939Z,99974.38
2023-01-27T01:01:47.291Z,99963.84
2023-01-27T01:07:09.443Z,99978.81
2023-01-27T01:12:31.661Z,100002.56
2023-01-27T01:17:53.518Z,99999.91
2023-01-27T01:23:17.595Z,99993.84
2023-01-27T01:28:40.194Z,99988.81
2023-01-27T01:34:02.235Z,99978.06
2023-01-27T01:39:24.239Z,99965.25
2023-01-27T01:44:46.478Z,99955.53
2023-01-27T01:50:09.319Z,99972.63
2023-01-27T01:55:34.987Z,99956.78
2023-01-27T02:00:56.991Z,99975.22
2023-01-27T02:06:20.228Z,99994.63
2023-01-27T02:11:42.357Z,99962.84
2023-01-27T02:17:06.397Z,99971.72
2023-01-27T02:22:55.414Z,99963.66
2023-01-27T02:28:17.599Z,99962.81
2023-01-27T02:33:40.110Z,99958.94
2023-01-27T02:39:04.032Z,99974.75
2023-01-27T02:44:26.018Z,99971.69
2023-01-27T02:49:50.089Z,99976.78
2023-01-27T02:55:12.826Z,99966.44
2023-01-27T03:00:35.672Z,99945.38
2023-01-27T03:05:57.540Z,99954.31
2023-01-27T03:11:39.640Z,99980.06
2023-01-27T03:17:19.879Z,99944.19
2023-01-27T03:22:42.257Z,99965.50
2023-01-27T03:28:10.640Z,99981.88
2023-01-27T03:33:58.839Z,99966.88
2023-01-27T03:39:43.037Z,99962.22
2023-01-27T03:45:26.000Z,99951.94
2023-01-27T03:50:53.690Z,99980.88
2023-01-27T03:56:17.255Z,99986.97
2023-01-27T04:01:39.347Z,99963.69
2023-01-27T04:07:03.422Z,99963.84
2023-01-27T04:12:28.449Z,99954.97
2023-01-27T04:17:54.430Z,99977.03
2023-01-27T04:23:16.238Z,99982.31
2023-01-27T04:28:44.083Z,99962.47
2023-01-27T04:34:06.978Z,99964.88
2023-01-27T04:39:30.138Z,99960.88
2023-01-27T04:44:52.477Z,99982.34
2023-01-27T04:50:15.269Z,99965.72
2023-01-27T04:55:37.921Z,99969.19
2023-01-27T05:01:00.735Z,99994.69
2023-01-27T05:06:27.510Z,99973.47
2023-01-27T05:11:49.799Z,100002.03
2023-01-27T05:17:12.352Z,99986.22
2023-01-27T05:22:34.954Z,99981.78
2023-01-27T05:27:57.578Z,99992.50
2023-01-27T05:33:25.411Z,99996.19
2023-01-27T05:38:48.539Z,99999.66
2023-01-27T05:44:12.800Z,99999.47
2023-01-27T05:49:37.049Z,99994.56
2023-01-27T05:55:03.738Z,100020.97
2023-01-27T06:00:26.697Z,100025.81
2023-01-27T06:05:53.820Z,100028.47
2023-01-27T06:11:18.658Z,100045.69
2023-01-27T06:16:41.106Z,100028.09
2023-01-27T06:22:03.698Z,100042.06
2023-01-27T06:27:25.933Z,100031.50
2023-01-27T06:32:48.389Z,100060.88
2023-01-27T06:38:16.256Z,100051.78
2023-01-27T06:43:39.242Z,100044.84
2023-01-27T06:49:01.623Z,100065.75
2023-01-27T06:54:24.581Z,100063.50
2023-01-27T06:59:47.267Z,100056.84
2023-01-27T07:05:10.061Z,100063.31
2023-01-27T07:10:32.494Z,100072.03
2023-01-27T07:15:56.844Z,100054.19
2023-01-27T07:21:19.367Z,100066.13
2023-01-27T07:26:45.858Z,100042.84
2023-01-27T07:32:08.385Z,100054.44
2023-01-27T07:37:30.480Z,100061.75
2023-01-27T07:42:59.930Z,100055.84
2023-01-27T07:48:22.967Z,100057.44
2023-01-27T07:53:45.579Z,100057.03
2023-01-27T07:59:07.840Z,100082.72
2023-01-27T08:04:31.597Z,100088.97
2023-01-27T08:09:57.960Z,100093.84
2023-01-27T08:15:20.387Z,100085.47
2023-01-27T08:20:46.069Z,100082.81
2023-01-27T08:26:08.799Z,100088.88
2023-01-27T08:31:30.597Z,100091.22
2023-01-27T08:36:53.078Z,100091.63
2023-01-27T08:42:15.147Z,100088.00
2023-01-27T08:47:37.019Z,100105.41
2023-01-27T08:53:00.269Z,100108.44
2023-01-27T08:58:23.701Z,100093.56
2023-01-27T09:03:49.279Z,100113.97
2023-01-27T09:09:12.450Z,100108.53
2023-01-27T09:14:34.729Z,100104.44
2023-01-27T09:19:56.918Z,100104.78
2023-01-27T09:25:19.354Z,100102.06
2023-01-27T09:30:41.635Z,100112.59
2023-01-27T09:36:10.285Z,100104.53
2023-01-27T09:41:49.520Z,100115.88
2023-01-27T09:47:33.663Z,100100.38
2023-01-27T09:53:23.210Z,100119.03
2023-01-27T09:59:26.018Z,100122.72
2023-01-27T10:04:56.962Z,100117.41
2023-01-27T10:10:31.256Z,100120.19
2023-01-27T10:16:13.858Z,100117.91
2023-01-27T10:22:00.087Z,100115.44
2023-01-27T10:27:24.497Z,100110.34
2023-01-27T10:33:16.579Z,100122.72
2023-01-27T10:38:50.019Z,100118.72
2023-01-27T10:44:36.367Z,100123.59
2023-01-27T10:50:03.839Z,100130.59
2023-01-27T10:55:45.341Z,100128.63
2023-01-27T11:01:21.735Z,100121.06
2023-01-27T11:06:47.175Z,100114.75
2023-01-27T11:12:16.128Z,100123.06
2023-01-27T11:17:46.276Z,100143.78
2023-01-27T11:23:11.707Z,100152.69
2023-01-27T11:29:09.000Z,100162.91
2023-01-27T11:34:39.989Z,100157.22
2023-01-27T11:40:08.702Z,100147.72
2023-01-27T11:45:36.886Z,100156.72
2023-01-27T11:50:59.240Z,100133.56
2023-01-27T11:56:22.102Z,100140.66
2023-01-27T12:01:54.601Z,100176.59
2023-01-27T12:07:23.779Z,100164.22
2023-01-27T12:12:45.846Z,100160.16
2023-01-27T12:18:16.442Z,100168.31
2023-01-27T12:23:48.339Z,100157.34
2023-01-27T12:29:27.946Z,100174.00
2023-01-27T12:34:56.918Z,100187.47
2023-01-27T12:40:29.580Z,100197.31
2023-01-27T12:46:05.557Z,100189.41
2023-01-27T12:51:54.667Z,100201.19
2023-01-27T12:57:22.441Z,100209.50
2023-01-27T13:02:47.738Z,100203.88
2023-01-27T13:08:20.171Z,100206.19
2023-01-27T13:13:54.380Z,100215.56
2023-01-27T13:19:20.142Z,100211.31
2023-01-27T13:24:43.581Z,100215.84
2023-01-27T13:30:26.412Z,100229.66
2023-01-27T13:36:05.183Z,100221.38
2023-01-27T13:41:53.765Z,100237.84
2023-01-27T13:47:30.313Z,100248.22
2023-01-27T13:52:55.946Z,100242.34
2023-01-27T13:58:44.641Z,100277.69
2023-01-27T14:04:17.998Z,100291.13
2023-01-27T14:09:45.632Z,100294.22
2023-01-27T14:15:38.334Z,100294.81
2023-01-27T14:21:40.659Z,100301.97
2023-01-27T14:27:26.185Z,100292.81
2023-01-27T14:32:59.223Z,100283.06
2023-01-27T14:38:40.621Z,100294.84
2023-01-27T14:44:20.844Z,100293.25
2023-01-27T14:50:12.516Z,100298.94
2023-01-27T14:56:10.018Z,100301.00
2023-01-27T15:08:30.807Z,100303.03
2023-01-27T15:15:00.428Z,100306.69
2023-01-27T15:22:01.641Z,100316.47
2023-01-27T15:27:41.251Z,100302.28
2023-01-27T15:41:12.363Z,100309.81
2023-01-27T15:46:58.447Z,100304.53
2023-01-27T15:58:43.085Z,100353.09
2023-01-27T16:04:16.607Z,100342.31
2023-01-27T16:09:46.298Z,100351.25
2023-01-27T16:15:33.362Z,100354.34
2023-01-27T16:21:01.570Z,100363.28
2023-01-27T16:26:31.117Z,100361.28
2023-01-27T16:32:01.238Z,100362.50
2023-01-27T16:37:30.808Z,100375.06
2023-01-27T16:42:58.059Z,100378.34
2023-01-27T16:48:32.298Z,100374.66
2023-01-27T16:53:57.626Z,100383.63
2023-01-27T16:59:23.559Z,100379.59
2023-01-27T17:04:52.614Z,100395.44
2023-01-27T17:10:29.185Z,100391.19
2023-01-27T17:15:57.597Z,100371.88
2023-01-27T17:21:30.326Z,100359.53
2023-01-27T17:27:22.895Z,100374.13
2023-01-27T17:32:50.087Z,100405.66
2023-01-27T17:38:17.308Z,100408.66
2023-01-27T17:43:40.399Z,100423.31
2023-01-27T17:49:09.266Z,100435.75
2023-01-27T17:54:43.806Z,100437.78
2023-01-27T18:00:22.160Z,100440.66
2023-01-27T18:05:46.432Z,100448.75
2023-01-27T18:11:12.450Z,100448.38
2023-01-27T18:16:34.725Z,100458.56
2023-01-27T18:22:18.365Z,100473.25
2023-01-27T18:27:41.056Z,100469.81
2023-01-27T18:33:06.674Z,100489.94
2023-01-27T18:38:33.275Z,100474.88
2023-01-27T18:44:00.392Z,100494.00
2023-01-27T18:49:24.528Z,100488.09
2023-01-27T18:54:51.880Z,100494.41
2023-01-27T19:00:21.757Z,100503.78
2023-01-27T19:05:43.829Z,100484.44
2023-01-27T19:11:05.896Z,100478.75
2023-01-27T19:16:28.276Z,100499.09
2023-01-27T19:21:50.026Z,100495.66
2023-01-27T19:27:20.457Z,100507.44
2023-01-27T19:32:46.148Z,100526.78
2023-01-27T19:38:13.134Z,100535.34
2023-01-27T19:43:35.140Z,100529.84
2023-01-27T19:48:57.336Z,100521.09
2023-01-27T19:54:19.779Z,100526.19
2023-01-27T19:59:41.815Z,100530.06
2023-01-27T20:05:03.976Z,100545.94
2023-01-27T20:10:33.053Z,100546.16
2023-01-27T20:15:58.057Z,100544.53
2023-01-27T20:21:25.718Z,100557.56
2023-01-27T20:26:48.151Z,100550.03
2023-01-27T20:32:10.332Z,100580.34
2023-01-27T20:37:32.383Z,100544.75
2023-01-27T20:42:54.713Z,100570.41
2023-01-27T20:48:18.155Z,100549.41
2023-01-27T20:53:48.226Z,100560.00
2023-01-27T20:59:10.794Z,100582.00
2023-01-27T21:04:32.948Z,100571.41
2023-01-27T21:09:55.757Z,100583.66
2023-01-27T21:15:18.088Z,100602.00
2023-01-27T21:20:40.266Z,100607.28
2023-01-27T21:26:10.026Z,100623.19
2023-01-27T21:31:34.250Z,100612.59
2023-01-27T21:36:56.495Z,100603.19
2023-01-27T21:42:39.067Z,100598.50
2023-01-27T21:48:01.356Z,100617.19
2023-01-27T21:53:24.103Z,100618.38
2023-01-27T21:58:46.414Z,100607.97
2023-01-27T22:04:08.806Z,100649.88
2023-01-27T22:09:30.855Z,100654.13
2023-01-27T22:14:53.096Z,100646.53
2023-01-27T22:20:18.863Z,100674.59
2023-01-27T22:25:40.843Z,100674.53
2023-01-27T22:31:02.954Z,100680.75
2023-01-27T22:36:25.334Z,100678.78
2023-01-27T22:41:47.647Z,100696.03
2023-01-27T22:47:09.666Z,100706.72
2023-01-27T22:52:31.622Z,100723.72
2023-01-27T22:57:53.608Z,100691.63
2023-01-27T23:03:15.859Z,100719.59
2023-01-27T23:08:38.454Z,100704.63
2023-01-27T23:14:03.385Z,100713.22
2023-01-27T23:19:25.799Z,100702.47
2023-01-27T23:24:48.165Z,100737.13
2023-01-27T23:30:12.002Z,100705.59
2023-01-27T23:35:35.046Z,100723.50
2023-01-27T23:41:06.464Z,100736.69
2023-01-27T23:46:28.849Z,100721.28
2023-01-27T23:51:51.744Z,100717.19
2023-01-27T23:57:14.516Z,100712.28
